createdAt,value
2019-04-06T00:00:46.337Z,1001.10
2019-04-06T00:01:46.330Z,1001.03
2019-04-06T00:02:46.341Z,1001.07
2019-04-06T00:03:46.342Z,1001.08
2019-04-06T00:04:46.296Z,1001.07
2019-04-06T00:05:46.282Z,1001.09
2019-04-06T00:06:46.276Z,1001.10
2019-04-06T00:07:46.262Z,1001.10
2019-04-06T00:08:46.258Z,1001.08
2019-04-06T00:09:46.271Z,1001.09
2019-04-06T00:10:46.230Z,1001.09
2019-04-06T00:11:46.222Z,1001.08
2019-04-06T00:12:46.208Z,1001.09
2019-04-06T00:13:46.197Z,1001.06
2019-04-06T00:14:46.214Z,1001.03
2019-04-06T00:15:46.176Z,1001.09
2019-04-06T00:16:46.168Z,1001.05
2019-04-06T00:17:46.152Z,1001.07
2019-04-06T00:18:46.141Z,1001.05
2019-04-06T00:19:46.166Z,1001.09
2019-04-06T00:20:46.122Z,1001.12
2019-04-06T00:21:46.110Z,1001.12
2019-04-06T00:22:46.103Z,1001.15
2019-04-06T00:23:46.089Z,1001.12
2019-04-06T00:24:46.077Z,1001.16
2019-04-06T00:25:46.092Z,1001.14
2019-04-06T00:26:46.056Z,1001.09
2019-04-06T00:27:46.046Z,1001.10
2019-04-06T00:28:46.033Z,1001.15
2019-04-06T00:29:46.023Z,1001.15
2019-04-06T00:30:46.039Z,1001.14
2019-04-06T00:31:46.001Z,1001.18
2019-04-06T00:32:45.992Z,1001.17
2019-04-06T00:33:45.981Z,1001.16
2019-04-06T00:34:46.006Z,1001.17
2019-04-06T00:35:45.984Z,1001.19
2019-04-06T00:36:45.948Z,1001.16
2019-04-06T00:37:45.935Z,1001.20
2019-04-06T00:38:45.923Z,1001.17
2019-04-06T00:39:45.913Z,1001.21
2019-04-06T00:40:45.928Z,1001.23
2019-04-06T00:41:45.893Z,1001.19
2019-04-06T00:42:45.930Z,1001.24
2019-04-06T00:43:45.870Z,1001.23
2019-04-06T00:44:45.859Z,1001.24
2019-04-06T00:45:45.881Z,1001.24
2019-04-06T00:46:45.857Z,1001.23
2019-04-06T00:47:45.824Z,1001.27
2019-04-06T00:48:45.859Z,1001.24
2019-04-06T00:49:45.807Z,1001.29
2019-04-06T00:50:45.792Z,1001.25
2019-04-06T00:51:45.806Z,1001.31
2019-04-06T00:52:45.770Z,1001.30
2019-04-06T00:53:45.762Z,1001.34
2019-04-06T00:54:45.751Z,1001.33
2019-04-06T00:55:55.145Z,1001.33
2019-04-06T00:56:46.750Z,1001.33
2019-04-06T00:57:45.717Z,1001.34
2019-04-06T00:58:45.705Z,1001.35
2019-04-06T00:59:45.692Z,1001.32
2019-04-06T01:00:45.683Z,1001.29
2019-04-06T01:01:45.699Z,1001.32
2019-04-06T01:02:45.660Z,1001.33
2019-04-06T01:03:45.651Z,1001.34
2019-04-06T01:04:45.638Z,1001.37
2019-04-06T01:05:45.631Z,1001.31
2019-04-06T01:06:45.655Z,1001.35
2019-04-06T01:07:45.607Z,1001.33
2019-04-06T01:08:45.595Z,1001.36
2019-04-06T01:09:45.586Z,1001.37
2019-04-06T01:10:45.573Z,1001.38
2019-04-06T01:11:45.563Z,1001.39
2019-04-06T01:12:45.575Z,1001.38
2019-04-06T01:13:45.539Z,1001.40
2019-04-06T01:14:45.530Z,1001.45
2019-04-06T01:15:45.519Z,1001.44
2019-04-06T01:16:45.507Z,1001.46
2019-04-06T01:17:45.522Z,1001.44
2019-04-06T01:18:45.486Z,1001.46
2019-04-06T01:19:45.493Z,1001.43
2019-04-06T01:20:45.463Z,1001.45
2019-04-06T01:21:45.455Z,1001.45
2019-04-06T01:22:45.479Z,1001.51
2019-04-06T01:23:45.433Z,1001.46
2019-04-06T01:24:45.422Z,1001.49
2019-04-06T01:25:45.416Z,1001.53
2019-04-06T01:26:45.405Z,1001.45
2019-04-06T01:27:45.393Z,1001.50
2019-04-06T01:28:45.403Z,1001.51
2019-04-06T01:29:45.373Z,1001.53
2019-04-06T01:30:45.355Z,1001.49
2019-04-06T01:31:45.348Z,1001.52
2019-04-06T01:32:45.334Z,1001.56
2019-04-06T01:33:45.361Z,1001.51
2019-04-06T01:34:45.320Z,1001.54
2019-04-06T01:35:45.302Z,1001.51
2019-04-06T01:36:45.291Z,1001.54
2019-04-06T01:37:45.280Z,1001.57
2019-04-06T01:38:45.269Z,1001.57
2019-04-06T01:39:45.288Z,1001.59
2019-04-06T01:40:45.248Z,1001.59
2019-04-06T01:41:45.237Z,1001.56
2019-04-06T01:42:45.225Z,1001.57
2019-04-06T01:43:45.213Z,1001.60
2019-04-06T01:44:45.332Z,1001.59
2019-04-06T01:45:45.197Z,1001.62
2019-04-06T01:46:45.180Z,1001.56
2019-04-06T01:47:45.171Z,1001.59
2019-04-06T01:48:45.251Z,1001.61
2019-04-06T01:49:45.155Z,1001.62
2019-04-06T01:50:45.165Z,1001.59
2019-04-06T01:51:45.128Z,1001.57
2019-04-06T01:52:45.119Z,1001.58
2019-04-06T01:53:45.109Z,1001.56
2019-04-06T01:54:45.097Z,1001.54
2019-04-06T01:55:45.109Z,1001.58
2019-04-06T01:56:45.076Z,1001.53
2019-04-06T01:57:45.068Z,1001.56
2019-04-06T01:58:45.054Z,1001.55
2019-04-06T01:59:45.107Z,1001.61
2019-04-06T02:00:45.068Z,1001.55
2019-04-06T02:01:45.021Z,1001.55
2019-04-06T02:02:45.011Z,1001.53
2019-04-06T02:03:44.999Z,1001.49
2019-04-06T02:04:44.988Z,1001.56
2019-04-06T02:05:44.978Z,1001.52
2019-04-06T02:06:44.991Z,1001.51
2019-04-06T02:07:44.957Z,1001.51
2019-04-06T02:08:44.945Z,1001.50
2019-04-06T02:09:44.935Z,1001.47
2019-04-06T02:10:44.922Z,1001.54
2019-04-06T02:11:44.948Z,1001.53
2019-04-06T02:12:44.901Z,1001.54
2019-04-06T02:13:44.927Z,1001.52
2019-04-06T02:14:44.879Z,1001.57
2019-04-06T02:15:44.866Z,1001.52
2019-04-06T02:16:44.855Z,1001.51
2019-04-06T02:17:44.873Z,1001.51
2019-04-06T02:18:44.834Z,1001.52
2019-04-06T02:19:44.824Z,1001.50
2019-04-06T02:20:44.859Z,1001.52
2019-04-06T02:21:44.884Z,1001.50
2019-04-06T02:22:44.823Z,1001.54
2019-04-06T02:23:44.781Z,1001.56
2019-04-06T02:24:44.770Z,1001.55
2019-04-06T02:25:44.758Z,1001.58
2019-04-06T02:26:44.750Z,1001.57
2019-04-06T02:27:44.832Z,1001.59
2019-04-06T02:28:44.727Z,1001.61
2019-04-06T02:29:44.714Z,1001.63
2019-04-06T02:30:44.706Z,1001.63
2019-04-06T02:31:44.697Z,1001.63
2019-04-06T02:32:44.689Z,1001.64
2019-04-06T02:33:44.695Z,1001.62
2019-04-06T02:34:44.683Z,1001.63
2019-04-06T02:35:44.649Z,1001.64
2019-04-06T02:36:44.648Z,1001.68
2019-04-06T02:37:44.626Z,1001.67
2019-04-06T02:38:44.642Z,1001.72
2019-04-06T02:39:44.605Z,1001.73
2019-04-06T02:40:44.598Z,1001.72
2019-04-06T02:41:44.583Z,1001.73
2019-04-06T02:42:44.571Z,1001.69
2019-04-06T02:43:44.585Z,1001.66
2019-04-06T02:44:44.551Z,1001.66
2019-04-06T02:45:44.541Z,1001.69
2019-04-06T02:46:44.529Z,1001.69
2019-04-06T02:47:44.516Z,1001.75
2019-04-06T02:48:44.543Z,1001.72
2019-04-06T02:49:44.526Z,1001.76
2019-04-06T02:50:44.485Z,1001.77
2019-04-06T02:51:44.478Z,1001.75
2019-04-06T02:52:44.666Z,1001.76
2019-04-06T02:53:44.450Z,1001.75
2019-04-06T02:54:44.462Z,1001.74
2019-04-06T02:55:44.459Z,1001.72
2019-04-06T02:56:47.128Z,1001.71
2019-04-06T02:57:44.404Z,1001.70
2019-04-06T02:58:44.395Z,1001.74
2019-04-06T02:59:44.547Z,1001.72
2019-04-06T03:00:44.374Z,1001.71
2019-04-06T03:01:44.362Z,1001.71
2019-04-06T03:02:44.360Z,1001.73
2019-04-06T03:03:44.339Z,1001.74
2019-04-06T03:04:44.367Z,1001.73
2019-04-06T03:05:44.328Z,1001.70
2019-04-06T03:06:44.397Z,1001.66
2019-04-06T03:07:44.296Z,1001.71
2019-04-06T03:08:44.288Z,1001.72
2019-04-06T03:09:44.276Z,1001.72
2019-04-06T03:10:44.289Z,1001.70
2019-04-06T03:11:44.252Z,1001.71
2019-04-06T03:12:44.262Z,1001.71
2019-04-06T03:13:44.230Z,1001.69
2019-04-06T03:14:44.893Z,1001.70
2019-04-06T03:15:44.246Z,1001.70
2019-04-06T03:16:44.199Z,1001.69
2019-04-06T03:17:44.186Z,1001.71
2019-04-06T03:18:44.176Z,1001.68
2019-04-06T03:19:44.165Z,1001.69
2019-04-06T03:20:44.153Z,1001.68
2019-04-06T03:21:44.167Z,1001.66
2019-04-06T03:22:44.195Z,1001.65
2019-04-06T03:23:51.275Z,1001.61
2019-04-06T03:24:45.109Z,1001.61
2019-04-06T03:25:44.105Z,1001.66
2019-04-06T03:26:44.130Z,1001.66
2019-04-06T03:27:44.078Z,1001.64
2019-04-06T03:28:44.065Z,1001.73
2019-04-06T03:29:56.721Z,1001.71
2019-04-06T03:30:45.054Z,1001.69
2019-04-06T03:31:44.077Z,1001.60
2019-04-06T03:32:44.037Z,1001.61
2019-04-06T03:33:44.202Z,1001.66
2019-04-06T03:34:44.002Z,1001.63
2019-04-06T03:35:47.668Z,1001.60
2019-04-06T03:36:45.138Z,1001.60
2019-04-06T03:37:43.975Z,1001.62
2019-04-06T03:38:43.961Z,1001.59
2019-04-06T03:39:43.950Z,1001.61
2019-04-06T03:40:43.934Z,1001.60
2019-04-06T03:41:44.162Z,1001.57
2019-04-06T03:42:43.938Z,1001.62
2019-04-06T03:43:43.902Z,1001.66
2019-04-06T03:44:44.030Z,1001.68
2019-04-06T03:45:43.884Z,1001.69
2019-04-06T03:46:43.873Z,1001.67
2019-04-06T03:47:43.884Z,1001.68
2019-04-06T03:48:43.850Z,1001.67
2019-04-06T03:49:43.885Z,1001.63
2019-04-06T03:50:43.827Z,1001.62
2019-04-06T03:51:43.819Z,1001.62
2019-04-06T03:52:43.946Z,1001.63
2019-04-06T03:53:43.797Z,1001.59
2019-04-06T03:54:43.783Z,1001.61
2019-04-06T03:55:43.774Z,1001.62
2019-04-06T03:56:43.761Z,1001.61
2019-04-06T03:57:43.913Z,1001.59
2019-04-06T03:58:43.770Z,1001.64
2019-04-06T03:59:43.944Z,1001.62
2019-04-06T04:00:43.717Z,1001.58
2019-04-06T04:01:43.707Z,1001.60
2019-04-06T04:02:43.819Z,1001.62
2019-04-06T04:03:43.711Z,1001.59
2019-04-06T04:04:43.714Z,1001.62
2019-04-06T04:05:43.968Z,1001.61
2019-04-06T04:06:43.671Z,1001.66
2019-04-06T04:07:43.642Z,1001.63
2019-04-06T04:08:43.685Z,1001.62
2019-04-06T04:09:43.869Z,1001.65
2019-04-06T04:10:46.862Z,1001.66
2019-04-06T04:11:43.645Z,1001.66
2019-04-06T04:12:43.588Z,1001.66
2019-04-06T04:13:43.586Z,1001.60
2019-04-06T04:14:43.589Z,1001.61
2019-04-06T04:15:43.557Z,1001.60
2019-04-06T04:16:43.546Z,1001.56
2019-04-06T04:17:43.762Z,1001.59
2019-04-06T04:18:43.522Z,1001.62
2019-04-06T04:19:43.547Z,1001.60
2019-04-06T04:20:43.502Z,1001.62
2019-04-06T04:21:43.602Z,1001.59
2019-04-06T04:22:43.480Z,1001.56
2019-04-06T04:23:43.468Z,1001.52
2019-04-06T04:24:43.456Z,1001.51
2019-04-06T04:25:43.471Z,1001.52
2019-04-06T04:26:43.434Z,1001.51
2019-04-06T04:27:43.426Z,1001.53
2019-04-06T04:28:43.640Z,1001.53
2019-04-06T04:29:43.402Z,1001.55
2019-04-06T04:30:43.425Z,1001.49
2019-04-06T04:31:43.385Z,1001.52
2019-04-06T04:32:43.382Z,1001.48
2019-04-06T04:33:43.359Z,1001.49
2019-04-06T04:34:43.345Z,1001.49
2019-04-06T04:35:43.460Z,1001.50
2019-04-06T04:36:43.437Z,1001.52
2019-04-06T04:37:43.313Z,1001.51
2019-04-06T04:38:43.300Z,1001.51
2019-04-06T04:39:43.294Z,1001.48
2019-04-06T04:40:43.283Z,1001.52
2019-04-06T04:41:43.292Z,1001.50
2019-04-06T04:42:43.531Z,1001.50
2019-04-06T04:43:43.256Z,1001.54
2019-04-06T04:44:43.236Z,1001.58
2019-04-06T04:45:43.226Z,1001.60
2019-04-06T04:46:43.241Z,1001.57
2019-04-06T04:47:43.202Z,1001.59
2019-04-06T04:48:43.206Z,1001.67
2019-04-06T04:49:43.183Z,1001.63
2019-04-06T04:50:43.170Z,1001.66
2019-04-06T04:51:43.200Z,1001.66
2019-04-06T04:52:43.148Z,1001.66
2019-04-06T04:53:43.145Z,1001.67
2019-04-06T04:54:43.131Z,1001.71
2019-04-06T04:55:43.114Z,1001.69
2019-04-06T04:56:43.105Z,1001.73
2019-04-06T04:57:45.096Z,1001.72
2019-04-06T04:58:43.108Z,1001.74
2019-04-06T04:59:43.071Z,1001.73
2019-04-06T05:00:43.070Z,1001.73
2019-04-06T05:01:43.053Z,1001.73
2019-04-06T05:02:43.075Z,1001.73
2019-04-06T05:03:43.263Z,1001.79
2019-04-06T05:04:43.015Z,1001.76
2019-04-06T05:05:43.008Z,1001.81
2019-04-06T05:06:42.996Z,1001.82
2019-04-06T05:07:42.987Z,1001.83
2019-04-06T05:08:43.002Z,1001.79
2019-04-06T05:09:42.962Z,1001.80
2019-04-06T05:10:42.952Z,1001.78
2019-04-06T05:11:42.940Z,1001.77
2019-04-06T05:12:42.929Z,1001.86
2019-04-06T05:13:42.941Z,1001.83
2019-04-06T05:14:42.906Z,1001.88
2019-04-06T05:15:42.896Z,1001.83
2019-04-06T05:16:42.885Z,1001.79
2019-04-06T05:17:42.874Z,1001.79
2019-04-06T05:18:42.902Z,1001.77
2019-04-06T05:19:42.855Z,1001.79
2019-04-06T05:20:42.842Z,1001.83
2019-04-06T05:21:42.832Z,1001.84
2019-04-06T05:22:42.823Z,1001.85
2019-04-06T05:23:42.808Z,1001.86
2019-04-06T05:24:42.825Z,1001.90
2019-04-06T05:25:42.786Z,1001.86
2019-04-06T05:26:42.775Z,1001.93
2019-04-06T05:27:51.767Z,1001.95
2019-04-06T05:28:43.755Z,1001.97
2019-04-06T05:29:42.767Z,1001.97
2019-04-06T05:30:42.739Z,1001.98
2019-04-06T05:31:42.722Z,1001.96
2019-04-06T05:32:42.711Z,1001.96
2019-04-06T05:33:42.733Z,1001.95
2019-04-06T05:34:42.728Z,1001.99
2019-04-06T05:35:42.677Z,1001.99
2019-04-06T05:36:42.790Z,1001.99
2019-04-06T05:37:42.656Z,1002.01
2019-04-06T05:38:42.645Z,1001.96
2019-04-06T05:39:42.638Z,1002.01
2019-04-06T05:40:42.646Z,1002.04
2019-04-06T05:41:42.609Z,1002.03
2019-04-06T05:42:42.602Z,1002.01
2019-04-06T05:43:42.630Z,1002.05
2019-04-06T05:44:42.577Z,1002.05
2019-04-06T05:45:42.661Z,1002.03
2019-04-06T05:46:42.557Z,1002.00
2019-04-06T05:47:42.547Z,1001.99
2019-04-06T05:48:42.535Z,1002.03
2019-04-06T05:49:42.522Z,1002.04
2019-04-06T05:50:42.511Z,1002.10
2019-04-06T05:51:42.839Z,1002.04
2019-04-06T05:52:42.490Z,1002.13
2019-04-06T05:53:42.479Z,1002.09
2019-04-06T05:54:42.467Z,1002.10
2019-04-06T05:55:42.606Z,1002.11
2019-04-06T05:56:42.470Z,1002.13
2019-04-06T05:57:42.434Z,1002.13
2019-04-06T05:58:44.336Z,1002.13
2019-04-06T05:59:42.412Z,1002.12
2019-04-06T06:00:42.502Z,1002.07
2019-04-06T06:01:42.626Z,1002.10
2019-04-06T06:02:42.388Z,1002.08
2019-04-06T06:03:42.370Z,1002.10
2019-04-06T06:04:42.359Z,1002.10
2019-04-06T06:05:42.351Z,1002.08
2019-04-06T06:06:42.371Z,1002.08
2019-04-06T06:07:42.327Z,1002.11
2019-04-06T06:08:42.313Z,1002.12
2019-04-06T06:09:42.300Z,1002.19
2019-04-06T06:10:42.290Z,1002.21
2019-04-06T06:11:42.280Z,1002.24
2019-04-06T06:12:42.291Z,1002.20
2019-04-06T06:13:42.264Z,1002.26
2019-04-06T06:14:42.247Z,1002.24
2019-04-06T06:15:42.236Z,1002.20
2019-04-06T06:16:42.460Z,1002.20
2019-04-06T06:17:42.274Z,1002.20
2019-04-06T06:18:42.205Z,1002.22
2019-04-06T06:19:42.192Z,1002.23
2019-04-06T06:20:42.181Z,1002.29
2019-04-06T06:21:42.171Z,1002.29
2019-04-06T06:22:42.227Z,1002.33
2019-04-06T06:23:42.178Z,1002.30
2019-04-06T06:24:42.138Z,1002.31
2019-04-06T06:25:42.130Z,1002.30
2019-04-06T06:26:42.288Z,1002.30
2019-04-06T06:27:42.104Z,1002.31
2019-04-06T06:28:42.119Z,1002.36
2019-04-06T06:29:42.107Z,1002.32
2019-04-06T06:30:42.075Z,1002.30
2019-04-06T06:31:42.069Z,1002.32
2019-04-06T06:32:42.052Z,1002.30
2019-04-06T06:33:42.078Z,1002.34
2019-04-06T06:34:42.033Z,1002.33
2019-04-06T06:35:42.054Z,1002.30
2019-04-06T06:36:42.201Z,1002.34
2019-04-06T06:37:41.997Z,1002.31
2019-04-06T06:38:41.986Z,1002.28
2019-04-06T06:39:42.001Z,1002.31
2019-04-06T06:40:42.002Z,1002.33
2019-04-06T06:41:41.953Z,1002.29
2019-04-06T06:42:41.944Z,1002.31
2019-04-06T06:43:41.929Z,1002.32
2019-04-06T06:44:42.122Z,1002.39
2019-04-06T06:45:41.909Z,1002.33
2019-04-06T06:46:41.898Z,1002.36
2019-04-06T06:47:41.885Z,1002.33
2019-04-06T06:48:43.068Z,1002.35
2019-04-06T06:49:42.074Z,1002.39
2019-04-06T06:50:42.030Z,1002.39
2019-04-06T06:51:41.842Z,1002.43
2019-04-06T06:52:41.832Z,1002.39
2019-04-06T06:53:41.821Z,1002.39
2019-04-06T06:54:41.912Z,1002.41
2019-04-06T06:55:41.825Z,1002.43
2019-04-06T06:56:42.000Z,1002.36
2019-04-06T06:57:41.831Z,1002.40
2019-04-06T06:58:41.764Z,1002.37
2019-04-06T06:59:41.754Z,1002.41
2019-04-06T07:00:41.813Z,1002.37
2019-04-06T07:01:41.949Z,1002.42
2019-04-06T07:02:41.892Z,1002.43
2019-04-06T07:03:41.717Z,1002.48
2019-04-06T07:04:41.716Z,1002.45
2019-04-06T07:05:41.689Z,1002.44
2019-04-06T07:06:41.739Z,1002.39
2019-04-06T07:07:41.669Z,1002.38
2019-04-06T07:08:41.659Z,1002.38
2019-04-06T07:09:41.652Z,1002.46
2019-04-06T07:10:41.645Z,1002.47
2019-04-06T07:11:41.660Z,1002.47
2019-04-06T07:12:41.632Z,1002.46
2019-04-06T07:13:41.603Z,1002.41
2019-04-06T07:14:41.614Z,1002.42
2019-04-06T07:15:43.194Z,1002.43
2019-04-06T07:16:41.569Z,1002.45
2019-04-06T07:17:41.586Z,1002.46
2019-04-06T07:18:41.548Z,1002.47
2019-04-06T07:19:41.571Z,1002.45
2019-04-06T07:20:41.525Z,1002.45
2019-04-06T07:21:41.515Z,1002.44
2019-04-06T07:22:41.538Z,1002.44
2019-04-06T07:23:41.513Z,1002.42
2019-04-06T07:24:41.483Z,1002.44
2019-04-06T07:25:41.470Z,1002.42
2019-04-06T07:26:41.933Z,1002.42
2019-04-06T07:27:41.452Z,1002.45
2019-04-06T07:28:41.578Z,1002.46
2019-04-06T07:29:41.426Z,1002.44
2019-04-06T07:30:41.423Z,1002.44
2019-04-06T07:31:41.404Z,1002.44
2019-04-06T07:32:41.437Z,1002.51
2019-04-06T07:33:41.407Z,1002.47
2019-04-06T07:34:41.502Z,1002.53
2019-04-06T07:35:41.414Z,1002.50
2019-04-06T07:36:41.349Z,1002.52
2019-04-06T07:37:41.338Z,1002.53
2019-04-06T07:38:41.539Z,1002.55
2019-04-06T07:39:41.316Z,1002.52
2019-04-06T07:40:41.304Z,1002.49
2019-04-06T07:41:41.295Z,1002.47
2019-04-06T07:42:41.307Z,1002.47
2019-04-06T07:43:41.275Z,1002.46
2019-04-06T07:44:41.284Z,1002.41
2019-04-06T07:45:41.250Z,1002.43
2019-04-06T07:46:41.250Z,1002.38
2019-04-06T07:47:41.233Z,1002.40
2019-04-06T07:48:41.227Z,1002.45
2019-04-06T07:49:41.244Z,1002.46
2019-04-06T07:50:41.402Z,1002.45
2019-04-06T07:51:41.184Z,1002.45
2019-04-06T07:52:41.174Z,1002.41
2019-04-06T07:53:41.163Z,1002.46
2019-04-06T07:54:41.161Z,1002.45
2019-04-06T07:55:41.174Z,1002.44
2019-04-06T07:56:41.132Z,1002.42
2019-04-06T07:57:41.123Z,1002.47
2019-04-06T07:58:48.379Z,1002.49
2019-04-06T07:59:42.098Z,1002.50
2019-04-06T08:00:41.113Z,1002.45
2019-04-06T08:01:41.077Z,1002.45
2019-04-06T08:02:41.070Z,1002.45
2019-04-06T08:03:41.056Z,1002.40
2019-04-06T08:04:41.047Z,1002.40
2019-04-06T08:05:41.061Z,1002.43
2019-04-06T08:06:41.023Z,1002.42
2019-04-06T08:07:41.012Z,1002.40
2019-04-06T08:08:41.187Z,1002.38
2019-04-06T08:09:41.000Z,1002.37
2019-04-06T08:10:41.018Z,1002.36
2019-04-06T08:11:40.968Z,1002.35
2019-04-06T08:12:41.199Z,1002.36
2019-04-06T08:13:40.950Z,1002.34
2019-04-06T08:14:40.947Z,1002.35
2019-04-06T08:15:40.964Z,1002.35
2019-04-06T08:16:40.954Z,1002.36
2019-04-06T08:17:40.909Z,1002.36
2019-04-06T08:18:40.892Z,1002.37
2019-04-06T08:19:40.882Z,1002.36
2019-04-06T08:20:40.872Z,1002.38
2019-04-06T08:21:40.894Z,1002.31
2019-04-06T08:22:40.848Z,1002.33
2019-04-06T08:23:40.890Z,1002.37
2019-04-06T08:24:40.825Z,1002.32
2019-04-06T08:25:40.814Z,1002.35
2019-04-06T08:26:40.802Z,1002.35
2019-04-06T08:27:41.017Z,1002.34
2019-04-06T08:28:40.781Z,1002.37
2019-04-06T08:29:40.774Z,1002.33
2019-04-06T08:30:45.995Z,1002.30
2019-04-06T08:31:41.749Z,1002.30
2019-04-06T08:32:40.804Z,1002.34
2019-04-06T08:33:40.890Z,1002.36
2019-04-06T08:34:40.716Z,1002.37
2019-04-06T08:35:40.704Z,1002.35
2019-04-06T08:36:40.696Z,1002.35
2019-04-06T08:37:40.719Z,1002.37
2019-04-06T08:38:40.676Z,1002.35
2019-04-06T08:39:40.675Z,1002.37
2019-04-06T08:40:40.648Z,1002.31
2019-04-06T08:41:40.640Z,1002.35
2019-04-06T08:42:40.860Z,1002.37
2019-04-06T08:43:40.693Z,1002.38
2019-04-06T08:44:40.608Z,1002.30
2019-04-06T08:45:40.810Z,1002.26
2019-04-06T08:46:40.607Z,1002.25
2019-04-06T08:47:40.576Z,1002.29
2019-04-06T08:48:40.642Z,1002.28
2019-04-06T08:49:40.553Z,1002.27
2019-04-06T08:50:40.541Z,1002.26
2019-04-06T08:51:40.541Z,1002.25
2019-04-06T08:52:40.528Z,1002.27
2019-04-06T08:53:40.546Z,1002.25
2019-04-06T08:54:40.568Z,1002.27
2019-04-06T08:55:40.499Z,1002.26
2019-04-06T08:56:40.477Z,1002.24
2019-04-06T08:57:40.521Z,1002.26
2019-04-06T08:58:40.453Z,1002.26
2019-04-06T08:59:40.465Z,1002.23
2019-04-06T09:00:40.433Z,1002.29
2019-04-06T09:01:40.420Z,1002.29
2019-04-06T09:02:40.410Z,1002.24
2019-04-06T09:03:40.421Z,1002.26
2019-04-06T09:04:40.429Z,1002.27
2019-04-06T09:05:40.376Z,1002.28
2019-04-06T09:06:40.397Z,1002.24
2019-04-06T09:07:40.910Z,1002.21
2019-04-06T09:08:40.344Z,1002.23
2019-04-06T09:09:40.332Z,1002.26
2019-04-06T09:10:40.347Z,1002.22
2019-04-06T09:11:40.309Z,1002.22
2019-04-06T09:12:40.300Z,1002.22
2019-04-06T09:13:40.520Z,1002.25
2019-04-06T09:14:40.279Z,1002.23
2019-04-06T09:15:40.363Z,1002.22
2019-04-06T09:16:40.290Z,1002.23
2019-04-06T09:17:40.455Z,1002.23
2019-04-06T09:18:40.240Z,1002.23
2019-04-06T09:19:40.222Z,1002.22
2019-04-06T09:20:40.236Z,1002.19
2019-04-06T09:21:40.200Z,1002.18
2019-04-06T09:22:40.190Z,1002.14
2019-04-06T09:23:40.284Z,1002.15
2019-04-06T09:24:40.210Z,1002.13
2019-04-06T09:25:40.196Z,1002.12
2019-04-06T09:26:40.152Z,1002.12
2019-04-06T09:27:40.143Z,1002.14
2019-04-06T09:28:40.142Z,1002.11
2019-04-06T09:29:40.114Z,1002.05
2019-04-06T09:30:40.105Z,1002.12
2019-04-06T09:31:40.164Z,1002.10
2019-04-06T09:32:40.085Z,1002.13
2019-04-06T09:33:40.076Z,1002.08
2019-04-06T09:34:40.063Z,1002.08
2019-04-06T09:36:04.590Z,1002.06
2019-04-06T09:36:46.253Z,1002.10
2019-04-06T09:38:55.511Z,1002.06
2019-04-06T09:39:48.817Z,1002.12
2019-04-06T09:40:48.863Z,1002.15
2019-04-06T09:41:48.814Z,1002.07
2019-04-06T09:42:48.777Z,1002.05
2019-04-06T09:43:48.766Z,1002.02
2019-04-06T09:44:48.856Z,1002.04
2019-04-06T09:45:48.750Z,1002.03
2019-04-06T09:46:48.759Z,1001.97
2019-04-06T09:47:48.723Z,1001.98
2019-04-06T09:48:48.711Z,1001.99
2019-04-06T09:49:48.880Z,1001.96
2019-04-06T09:50:48.690Z,1001.97
2019-04-06T09:51:48.715Z,1001.97
2019-04-06T09:52:48.880Z,1001.91
2019-04-06T09:53:48.656Z,1001.97
2019-04-06T09:54:48.687Z,1001.95
2019-04-06T09:55:48.635Z,1001.91
2019-04-06T09:56:48.624Z,1001.93
2019-04-06T09:57:48.655Z,1001.88
2019-04-06T09:58:48.628Z,1001.89
2019-04-06T09:59:48.652Z,1001.87
2019-04-06T10:00:48.898Z,1001.87
2019-04-06T10:01:48.572Z,1001.86
2019-04-06T10:02:48.585Z,1001.87
2019-04-06T10:03:48.800Z,1001.90
2019-04-06T10:04:48.541Z,1001.88
2019-04-06T10:05:48.589Z,1001.90
2019-04-06T10:06:48.637Z,1001.88
2019-04-06T10:07:48.551Z,1001.84
2019-04-06T10:08:48.684Z,1001.82
2019-04-06T10:09:48.488Z,1001.86
2019-04-06T10:10:48.474Z,1001.89
2019-04-06T10:11:48.464Z,1001.87
2019-04-06T10:12:49.038Z,1001.81
2019-04-06T10:13:48.468Z,1001.90
2019-04-06T10:14:48.442Z,1001.84
2019-04-06T10:15:48.424Z,1001.80
2019-04-06T10:16:48.413Z,1001.83
2019-04-06T10:17:48.424Z,1001.83
2019-04-06T10:18:48.412Z,1001.78
2019-04-06T10:19:48.385Z,1001.79
2019-04-06T10:20:48.480Z,1001.80
2019-04-06T10:21:48.460Z,1001.80
2019-04-06T10:22:48.347Z,1001.74
2019-04-06T10:23:48.492Z,1001.68
2019-04-06T10:24:48.505Z,1001.68
2019-04-06T10:25:48.626Z,1001.71
2019-04-06T10:26:48.378Z,1001.72
2019-04-06T10:27:48.294Z,1001.75
2019-04-06T10:28:48.533Z,1001.75
2019-04-06T10:29:50.084Z,1001.71
2019-04-06T10:30:48.259Z,1001.73
2019-04-06T10:31:48.469Z,1001.71
2019-04-06T10:32:48.388Z,1001.78
2019-04-06T10:33:48.398Z,1001.71
2019-04-06T10:34:48.443Z,1001.69
2019-04-06T10:35:48.202Z,1001.76
2019-04-06T10:36:48.192Z,1001.72
2019-04-06T10:37:48.180Z,1001.71
2019-04-06T10:38:48.174Z,1001.78
2019-04-06T10:39:48.156Z,1001.77
2019-04-06T10:40:48.170Z,1001.75
2019-04-06T10:41:48.135Z,1001.75
2019-04-06T10:42:48.124Z,1001.77
2019-04-06T10:43:48.118Z,1001.71
2019-04-06T10:44:48.103Z,1001.75
2019-04-06T10:45:48.131Z,1001.74
2019-04-06T10:46:48.082Z,1001.72
2019-04-06T10:47:48.069Z,1001.70
2019-04-06T10:48:48.061Z,1001.68
2019-04-06T10:49:48.109Z,1001.69
2019-04-06T10:50:48.214Z,1001.73
2019-04-06T10:51:48.054Z,1001.71
2019-04-06T10:52:48.018Z,1001.73
2019-04-06T10:53:48.006Z,1001.77
2019-04-06T10:54:47.996Z,1001.71
2019-04-06T10:55:48.223Z,1001.70
2019-04-06T10:56:48.015Z,1001.70
2019-04-06T10:57:47.962Z,1001.70
2019-04-06T10:58:48.027Z,1001.71
2019-04-06T10:59:59.917Z,1001.67
2019-04-06T11:00:49.201Z,1001.68
2019-04-06T11:01:47.932Z,1001.72
2019-04-06T11:02:47.931Z,1001.73
2019-04-06T11:03:47.898Z,1001.77
2019-04-06T11:04:48.253Z,1001.76
2019-04-06T11:05:47.875Z,1001.72
2019-04-06T11:06:47.867Z,1001.72
2019-04-06T11:07:47.948Z,1001.76
2019-04-06T11:08:47.842Z,1001.74
2019-04-06T11:09:47.833Z,1001.71
2019-04-06T11:10:47.820Z,1001.68
2019-04-06T11:11:48.088Z,1001.70
2019-04-06T11:12:48.082Z,1001.68
2019-04-06T11:13:47.815Z,1001.68
2019-04-06T11:14:47.814Z,1001.74
2019-04-06T11:15:47.773Z,1001.69
2019-04-06T11:16:48.331Z,1001.74
2019-04-06T11:17:47.775Z,1001.75
2019-04-06T11:18:47.767Z,1001.78
2019-04-06T11:19:47.724Z,1001.77
2019-04-06T11:20:47.714Z,1001.77
2019-04-06T11:21:47.701Z,1001.79
2019-04-06T11:22:47.690Z,1001.80
2019-04-06T11:23:47.724Z,1001.79
2019-04-06T11:24:47.672Z,1001.74
2019-04-06T11:25:47.658Z,1001.78
2019-04-06T11:26:47.646Z,1001.77
2019-04-06T11:27:47.639Z,1001.70
2019-04-06T11:28:47.627Z,1001.75
2019-04-06T11:29:47.641Z,1001.68
2019-04-06T11:30:47.716Z,1001.70
2019-04-06T11:31:47.597Z,1001.66
2019-04-06T11:32:47.938Z,1001.69
2019-04-06T11:33:47.713Z,1001.68
2019-04-06T11:34:47.601Z,1001.65
2019-04-06T11:35:47.552Z,1001.70
2019-04-06T11:36:47.541Z,1001.75
2019-04-06T11:37:47.533Z,1001.76
2019-04-06T11:38:47.523Z,1001.75
2019-04-06T11:39:47.513Z,1001.70
2019-04-06T11:40:47.633Z,1001.66
2019-04-06T11:41:47.820Z,1001.67
2019-04-06T11:42:47.482Z,1001.72
2019-04-06T11:43:47.469Z,1001.68
2019-04-06T11:44:47.456Z,1001.70
2019-04-06T11:45:47.482Z,1001.68
2019-04-06T11:46:47.435Z,1001.72
2019-04-06T11:47:47.431Z,1001.71
2019-04-06T11:48:47.414Z,1001.69
2019-04-06T11:49:47.665Z,1001.72
2019-04-06T11:50:47.394Z,1001.69
2019-04-06T11:51:47.408Z,1001.68
2019-04-06T11:52:47.372Z,1001.67
2019-04-06T11:53:47.428Z,1001.73
2019-04-06T11:54:47.351Z,1001.76
2019-04-06T11:55:47.342Z,1001.67
2019-04-06T11:56:47.546Z,1001.71
2019-04-06T11:57:47.560Z,1001.62
2019-04-06T11:58:47.309Z,1001.65
2019-04-06T11:59:47.530Z,1001.63
2019-04-06T12:00:47.290Z,1001.70
2019-04-06T12:01:47.277Z,1001.67
2019-04-06T12:02:47.292Z,1001.59
2019-04-06T12:03:47.336Z,1001.57
2019-04-06T12:04:47.247Z,1001.60
2019-04-06T12:05:47.236Z,1001.62
2019-04-06T12:06:47.226Z,1001.68